Terminal Aerodrome Forecast
Issued by NWS

Home | Current Version | Previous Version | Text Only | Print | Product List | Glossary On
Versions: 1 2 3 4 5 6 7 8 9 10 11 12 13 14 15 16 17 18 19 20 21 22
464
FTUS42 KGSP 161730
TAFAND
TAF
KAND 161730Z 1618/1718 07004KT P6SM OVC009
     FM170100 09004KT P6SM OVC008
     FM170300 08005KT 5SM BR OVC003
     FM171000 16003KT 1 1/2SM BR OVC003
     FM171600 21007KT P6SM OVC015=

USA.gov is the U.S. government's official web portal to all federal, state and local government web resources and services.